Time;durP1;ratioP1;P1;durP2;ratioP2;P2;SDS_P1;SDS_P2;PMS_P1;PMS_P2;Temp;Humidity;BMP_temperature;BMP_pressure;BME280_temperature;BME280_humidity;BME280_pressure;Samples;Min_cycle;Max_cycle;Signal;HPM_P1;HPM_P2
2021/08/23 00:00:42;;;;;;;28.60;11.97;;;;;;;13.22;88.89;100479.92;1785863;79;21040;-72
2021/08/23 00:03:08;;;;;;;28.83;12.58;;;;;;;13.20;89.49;100486.62;1785877;80;21004;-72
2021/08/23 00:05:35;;;;;;;26.07;13.05;;;;;;;13.18;89.23;100485.83;1786135;80;21555;-72
2021/08/23 00:08:02;;;;;;;24.70;12.20;;;;;;;13.17;89.13;100481.91;1785972;80;21470;-71
2021/08/23 00:10:30;;;;;;;14.73;7.12;;;;;;;13.16;89.32;100481.06;1785793;80;21028;-71
2021/08/23 00:12:56;;;;;;;28.07;13.28;;;;;;;13.14;89.10;100484.22;1785987;79;21029;-71
2021/08/23 00:15:23;;;;;;;26.60;12.23;;;;;;;13.13;89.76;100489.56;1786351;80;21032;-72
2021/08/23 00:17:49;;;;;;;27.55;12.68;;;;;;;13.10;89.66;100485.27;1785956;80;21157;-71
2021/08/23 00:20:17;;;;;;;28.75;12.75;;;;;;;13.09;89.40;100489.29;1785665;80;21533;-73
2021/08/23 00:22:47;;;;;;;25.00;11.43;;;;;;;13.06;90.22;100490.28;1785881;80;21531;-71
2021/08/23 00:25:15;;;;;;;29.52;14.03;;;;;;;13.05;89.93;100489.05;1760482;80;21045;-73
2021/08/23 00:27:42;;;;;;;25.92;13.05;;;;;;;13.03;90.23;100485.13;1786032;80;21487;-70
2021/08/23 00:30:11;;;;;;;28.65;10.32;;;;;;;13.03;90.29;100485.13;1784418;80;21033;-72
2021/08/23 00:32:40;;;;;;;26.05;13.43;;;;;;;12.99;90.04;100480.89;1778641;80;21060;-70
2021/08/23 00:35:08;;;;;;;19.52;9.48;;;;;;;12.98;90.31;100484.47;1778698;80;21088;-73
2021/08/23 00:37:37;;;;;;;30.37;14.78;;;;;;;12.97;90.19;100490.66;1778605;80;21103;-70
2021/08/23 00:40:05;;;;;;;27.80;13.65;;;;;;;12.95;90.09;100487.22;1778823;80;21629;-71
2021/08/23 00:42:31;;;;;;;22.67;10.43;;;;;;;12.93;90.55;100495.67;1778570;80;21076;-73
2021/08/23 00:45:01;;;;;;;32.70;14.33;;;;;;;12.91;90.24;100496.22;1778564;80;21541;-72
2021/08/23 00:47:27;;;;;;;27.35;12.47;;;;;;;12.89;90.63;100494.09;1778891;80;21060;-71
2021/08/23 00:49:53;;;;;;;28.87;12.40;;;;;;;12.89;90.79;100492.78;1778526;80;21089;-72
2021/08/23 00:52:20;;;;;;;33.02;14.83;;;;;;;12.88;90.65;100496.33;1778456;80;21167;-72
2021/08/23 00:54:46;;;;;;;30.25;13.50;;;;;;;12.87;90.72;100491.98;1782091;80;21575;-72
2021/08/23 00:57:13;;;;;;;26.50;13.00;;;;;;;12.86;90.50;100495.52;1786168;80;21130;-72
2021/08/23 00:59:41;;;;;;;19.15;9.08;;;;;;;12.86;90.69;100495.52;1790671;79;20940;-72
2021/08/23 01:02:36;;;;;;;30.32;14.95;;;;;;;12.85;91.16;100500.42;1797646;79;21074;-71
2021/08/23 01:05:14;;;;;;;31.12;15.23;;;;;;;12.84;91.20;100500.01;1797315;79;21114;-72
2021/08/23 01:07:56;;;;;;;18.42;9.20;;;;;;;12.82;91.00;100501.88;1797779;79;21086;-70
2021/08/23 01:10:37;;;;;;;24.77;10.95;;;;;;;12.80;91.41;100500.14;1797645;79;21098;-72
2021/08/23 01:13:07;;;;;;;36.55;16.15;;;;;;;12.77;91.35;100487.53;1797485;78;21103;-72
2021/08/23 01:15:33;;;;;;;17.10;10.43;;;;;;;12.76;91.98;100486.65;1797523;79;21079;-71
2021/08/23 01:18:00;;;;;;;23.45;12.33;;;;;;;12.73;92.30;100485.45;1797803;79;21551;-72
2021/08/23 01:20:26;;;;;;;29.42;15.00;;;;;;;12.70;92.14;100490.88;1797732;79;21086;-71
2021/08/23 01:22:53;;;;;;;19.07;9.93;;;;;;;12.67;92.96;100494.95;1797859;79;21509;-72
2021/08/23 01:25:28;;;;;;;33.92;16.73;;;;;;;12.62;92.55;100491.63;1797781;79;21067;-73
2021/08/23 01:28:16;;;;;;;29.42;15.80;;;;;;;12.62;92.80;100492.95;1797124;79;21031;-72
2021/08/23 01:31:15;;;;;;;17.50;9.20;;;;;;;12.57;92.98;100499.73;1797682;79;21075;-71
2021/08/23 01:33:43;;;;;;;33.75;15.98;;;;;;;12.55;92.85;100496.77;1798038;79;21534;-71
2021/08/23 01:36:11;;;;;;;34.63;15.85;;;;;;;12.54;93.33;100495.05;1797670;79;21011;-71
2021/08/23 01:38:38;;;;;;;27.22;12.65;;;;;;;12.54;93.47;100499.02;1797942;79;21035;-71
2021/08/23 01:41:07;;;;;;;31.97;15.43;;;;;;;12.52;93.22;100494.25;1794847;79;21075;-72
2021/08/23 01:43:35;;;;;;;16.10;9.18;;;;;;;12.52;93.33;100501.70;1797980;79;21032;-71
2021/08/23 01:46:02;;;;;;;17.98;9.08;;;;;;;12.50;93.33;100493.45;1797856;79;21044;-72
2021/08/23 01:48:29;;;;;;;34.53;15.58;;;;;;;12.50;93.32;100494.30;1797783;79;21521;-73
2021/08/23 01:50:55;;;;;;;23.55;13.10;;;;;;;12.50;93.69;100493.45;1797697;79;21083;-73
2021/08/23 01:53:22;;;;;;;29.18;15.15;;;;;;;12.49;93.62;100491.70;1798066;79;21598;-72
2021/08/23 01:55:50;;;;;;;30.43;15.03;;;;;;;12.49;93.69;100485.10;1750320;80;21053;-72
2021/08/23 01:58:16;;;;;;;21.93;11.70;;;;;;;12.48;93.47;100493.97;1778775;80;21116;-72
2021/08/23 02:00:43;;;;;;;30.75;14.43;;;;;;;12.48;93.38;100492.64;1782286;80;21887;-72
2021/08/23 02:03:10;;;;;;;12.40;6.95;;;;;;;12.50;93.86;100493.45;1784562;80;21017;-71
2021/08/23 02:05:38;;;;;;;24.85;13.22;;;;;;;12.48;93.79;100488.68;1784522;80;21028;-71
2021/08/23 02:08:06;;;;;;;22.50;13.60;;;;;;;12.48;94.03;100491.32;1784032;80;21021;-73
2021/08/23 02:10:32;;;;;;;24.98;12.50;;;;;;;12.45;94.35;100488.34;1784176;80;20997;-72
2021/08/23 02:12:59;;;;;;;26.90;13.08;;;;;;;12.45;94.27;100483.53;1783980;80;21543;-72
2021/08/23 02:15:25;;;;;;;21.97;12.33;;;;;;;12.44;94.60;100483.96;1783931;79;21116;-72
2021/08/23 02:17:52;;;;;;;26.77;12.15;;;;;;;12.42;94.70;100483.63;1784170;80;21153;-72
2021/08/23 02:20:18;;;;;;;24.47;13.75;;;;;;;12.43;94.61;100484.05;1784045;80;21548;-73
2021/08/23 02:22:46;;;;;;;22.22;12.23;;;;;;;12.41;94.82;100488.52;1784160;80;21052;-73
2021/08/23 02:25:12;;;;;;;24.63;13.05;;;;;;;12.39;94.77;100486.78;1784047;80;21140;-72
2021/08/23 02:27:38;;;;;;;14.38;8.18;;;;;;;12.38;94.72;100493.00;1783919;80;21054;-72
2021/08/23 02:30:05;;;;;;;24.98;13.88;;;;;;;12.37;94.81;100491.73;1784213;80;21088;-72
2021/08/23 02:32:33;;;;;;;25.75;14.33;;;;;;;12.36;94.98;100490.88;1784003;80;21165;-71
2021/08/23 02:35:00;;;;;;;27.67;13.30;;;;;;;12.35;95.06;100490.48;1784296;80;21030;-73
2021/08/23 02:37:27;;;;;;;28.92;13.20;;;;;;;12.32;95.15;100495.87;1784057;80;21487;-73
2021/08/23 02:39:53;;;;;;;22.85;13.58;;;;;;;12.30;95.17;100496.38;1784215;80;21084;-72
2021/08/23 02:42:20;;;;;;;16.12;8.90;;;;;;;12.29;95.45;100495.14;1783860;80;21028;-71
2021/08/23 02:44:47;;;;;;;27.37;13.15;;;;;;;12.28;95.31;100498.22;1783809;80;21299;-71
2021/08/23 02:47:14;;;;;;;14.50;8.10;;;;;;;12.28;95.66;100498.22;1784265;80;20985;-72
2021/08/23 02:49:41;;;;;;;24.25;12.82;;;;;;;12.27;95.71;100496.51;1783835;80;21179;-73
2021/08/23 02:52:08;;;;;;;22.05;12.75;;;;;;;12.29;95.78;100498.64;1783938;80;21045;-71
2021/08/23 02:54:36;;;;;;;25.23;11.40;;;;;;;12.27;95.75;100495.66;1784001;80;20990;-72
2021/08/23 02:57:03;;;;;;;25.10;12.15;;;;;;;12.21;95.55;100486.17;1784100;80;21024;-72
2021/08/23 02:59:29;;;;;;;25.25;12.33;;;;;;;12.23;95.67;100492.26;1784092;80;21059;-72
2021/08/23 03:01:56;;;;;;;18.62;11.43;;;;;;;12.23;95.81;100497.54;1784139;80;21548;-72
2021/08/23 03:04:25;;;;;;;25.97;13.05;;;;;;;12.22;95.74;100498.47;1784185;80;21707;-71
2021/08/23 03:06:52;;;;;;;23.07;11.30;;;;;;;12.21;95.86;100503.33;1784247;79;21110;-72
2021/08/23 03:09:19;;;;;;;20.90;12.20;;;;;;;12.20;95.72;100502.95;1784219;79;21662;-71
2021/08/23 03:11:45;;;;;;;21.23;12.18;;;;;;;12.18;95.73;100502.14;1784088;80;21036;-73
2021/08/23 03:14:11;;;;;;;19.30;9.48;;;;;;;12.17;95.64;100506.56;1784440;80;21080;-72
2021/08/23 03:16:38;;;;;;;23.75;12.73;;;;;;;12.14;95.52;100505.34;1784094;80;21092;-72
2021/08/23 03:19:05;;;;;;;25.23;12.43;;;;;;;12.14;95.68;100515.05;1784319;80;21049;-72
2021/08/23 03:21:31;;;;;;;28.90;12.35;;;;;;;12.13;95.65;100510.70;1784060;80;21017;-72
2021/08/23 03:23:59;;;;;;;24.15;12.13;;;;;;;12.16;95.68;100518.50;1775715;80;21024;-71
2021/08/23 03:26:25;;;;;;;15.30;8.53;;;;;;;12.19;96.05;100511.77;1782111;79;21493;-71
2021/08/23 03:28:52;;;;;;;28.90;12.65;;;;;;;12.27;96.05;100515.46;1787324;79;21088;-74
2021/08/23 03:31:19;;;;;;;22.65;12.25;;;;;;;12.45;96.28;100508.63;1785546;78;21032;-74
2021/08/23 03:33:46;;;;;;;23.67;12.53;;;;;;;12.65;95.73;100509.99;1781361;80;21009;-75
2021/08/23 03:36:12;;;;;;;23.07;12.45;;;;;;;12.85;95.06;100512.32;1776285;80;20991;-73
2021/08/23 03:38:41;;;;;;;23.20;11.50;;;;;;;13.03;94.48;100508.92;1781796;80;21096;-74
2021/08/23 03:41:10;;;;;;;27.52;11.75;;;;;;;13.25;93.63;100510.23;1784169;80;21024;-74
2021/08/23 03:43:37;;;;;;;23.42;11.48;;;;;;;13.52;92.93;100517.47;1784363;80;21048;-74
2021/08/23 03:46:03;;;;;;;24.18;10.98;;;;;;;13.78;91.87;100521.64;1784394;80;21024;-74
2021/08/23 03:48:29;;;;;;;28.92;12.03;;;;;;;13.95;90.43;100519.56;1784682;79;21406;-75
2021/08/23 03:50:56;;;;;;;23.92;11.03;;;;;;;14.04;89.69;100514.32;1765652;80;22218;-75
2021/08/23 03:53:22;;;;;;;22.55;11.55;;;;;;;14.08;89.30;100512.38;1763733;80;21063;-74
2021/08/23 03:55:50;;;;;;;21.93;11.12;;;;;;;14.21;88.97;100520.16;1763750;81;21071;-76
2021/08/23 03:58:16;;;;;;;24.60;12.00;;;;;;;14.49;88.77;100518.41;1778501;80;21477;-76
2021/08/23 04:00:43;;;;;;;25.08;12.28;;;;;;;14.80;87.52;100520.50;1784070;80;21147;-76
2021/08/23 04:03:10;;;;;;;26.15;11.63;;;;;;;15.11;86.25;100518.98;1784043;80;21529;-76
2021/08/23 04:05:37;;;;;;;22.35;12.40;;;;;;;15.40;84.49;100514.03;1777235;79;21060;-75
2021/08/23 04:08:04;;;;;;;19.42;11.15;;;;;;;15.70;82.97;100515.13;1769790;80;21045;-76
2021/08/23 04:10:30;;;;;;;22.65;11.03;;;;;;;16.03;81.82;100513.42;1783372;79;20989;-77
2021/08/23 04:12:57;;;;;;;25.55;10.98;;;;;;;16.36;80.38;100513.41;1773764;80;21160;-75
2021/08/23 04:15:23;;;;;;;20.65;10.58;;;;;;;16.68;78.95;100508.07;1775282;80;21100;-74
2021/08/23 04:17:50;;;;;;;22.48;11.73;;;;;;;16.97;77.96;100505.97;1775112;80;21488;-74
2021/08/23 04:20:16;;;;;;;22.77;12.00;;;;;;;17.27;76.57;100505.14;1776054;80;21027;-75
2021/08/23 04:22:42;;;;;;;18.57;11.12;;;;;;;17.54;75.41;100511.96;1773389;79;21020;-75
2021/08/23 04:25:10;;;;;;;20.00;11.18;;;;;;;17.75;74.13;100513.80;1781738;80;21559;-75
2021/08/23 04:27:36;;;;;;;18.98;11.03;;;;;;;18.03;73.20;100512.14;1771806;80;21503;-74
2021/08/23 04:30:03;;;;;;;21.45;11.60;;;;;;;18.36;72.35;100515.00;1772408;80;21040;-74
2021/08/23 04:32:30;;;;;;;20.05;11.40;;;;;;;18.61;70.98;100511.59;1778587;80;21044;-76
2021/08/23 04:34:56;;;;;;;19.75;11.48;;;;;;;18.89;69.52;100509.83;1738109;81;21502;-74
2021/08/23 04:37:23;;;;;;;18.70;12.20;;;;;;;19.12;68.64;100505.63;1766451;80;22874;-76
2021/08/23 04:39:50;;;;;;;22.65;12.43;;;;;;;19.41;67.52;100513.88;1764387;80;21396;-76
2021/08/23 04:42:17;;;;;;;19.80;12.45;;;;;;;19.75;66.86;100509.42;1766982;80;21004;-75
2021/08/23 04:44:44;;;;;;;25.60;12.80;;;;;;;20.09;65.06;100506.58;1773841;80;21123;-75
2021/08/23 04:47:11;;;;;;;20.72;12.35;;;;;;;20.41;64.31;100507.44;1753745;80;21124;-74
2021/08/23 04:49:37;;;;;;;19.77;12.82;;;;;;;20.64;63.28;100506.65;1776080;80;21623;-76
2021/08/23 04:52:04;;;;;;;23.12;12.78;;;;;;;20.91;62.02;100513.59;1775090;80;21522;-75
2021/08/23 04:54:31;;;;;;;23.35;12.90;;;;;;;21.18;61.37;100501.30;1764205;81;21031;-74
2021/08/23 04:56:57;;;;;;;19.32;12.45;;;;;;;21.43;59.73;100498.14;1764165;80;21096;-76
2021/08/23 04:59:24;;;;;;;20.27;12.25;;;;;;;21.65;59.53;100495.52;1782819;80;21011;-77
2021/08/23 05:01:51;;;;;;;22.80;12.75;;;;;;;21.98;59.09;100501.39;1784459;80;21591;-76
2021/08/23 05:04:18;;;;;;;18.07;12.70;;;;;;;22.31;57.55;100498.36;1783103;80;21120;-76
2021/08/23 05:06:45;;;;;;;22.30;12.20;;;;;;;22.56;55.84;100499.91;1786798;79;21543;-78
2021/08/23 05:09:12;;;;;;;19.17;11.75;;;;;;;22.73;55.97;100497.22;1780665;79;21059;-76
2021/08/23 05:11:40;;;;;;;19.12;12.40;;;;;;;23.06;54.77;100499.45;1776805;79;21492;-77
2021/08/23 05:14:07;;;;;;;20.25;12.30;;;;;;;23.34;54.43;100491.75;1781116;80;21104;-77
2021/08/23 05:16:33;;;;;;;19.85;11.55;;;;;;;23.66;53.34;100500.59;1772788;80;21853;-77
2021/08/23 05:19:00;;;;;;;18.50;11.40;;;;;;;23.90;51.89;100493.25;1776316;79;21037;-77
2021/08/23 05:21:26;;;;;;;19.65;12.15;;;;;;;24.01;51.75;100496.70;1772445;80;20990;-78
2021/08/23 05:23:53;;;;;;;19.57;10.95;;;;;;;24.17;50.96;100492.66;1773499;79;21881;-76
2021/08/23 05:26:19;;;;;;;21.05;11.85;;;;;;;24.34;50.90;100491.16;1778838;80;21079;-77
2021/08/23 05:28:45;;;;;;;19.37;10.45;;;;;;;24.63;50.22;100493.97;1774729;79;21148;-78
2021/08/23 05:31:13;;;;;;;16.52;10.20;;;;;;;24.95;49.10;100491.53;1777051;79;21591;-77
2021/08/23 05:33:39;;;;;;;15.50;10.23;;;;;;;25.26;48.62;100489.09;1773530;80;21547;-77
2021/08/23 05:36:06;;;;;;;14.95;10.30;;;;;;;25.56;47.01;100488.55;1779668;79;21045;-78
2021/08/23 05:38:33;;;;;;;14.07;9.00;;;;;;;25.92;46.25;100496.84;1768224;80;21063;-76
2021/08/23 05:40:59;;;;;;;14.68;9.93;;;;;;;26.32;45.69;100491.65;1766373;81;22070;-76
2021/08/23 05:43:25;;;;;;;13.15;9.00;;;;;;;26.69;43.70;100490.75;1766194;81;21075;-78
2021/08/23 05:45:52;;;;;;;14.33;10.43;;;;;;;26.93;43.61;100493.69;1779517;80;21052;-78
2021/08/23 05:48:19;;;;;;;14.63;9.88;;;;;;;27.26;42.80;100498.06;1782860;80;21025;-78
2021/08/23 05:50:46;;;;;;;16.07;10.10;;;;;;;27.74;41.21;100491.83;1782751;80;21080;-79
2021/08/23 05:53:12;;;;;;;12.78;9.33;;;;;;;27.97;39.75;100494.87;1729678;80;21123;-77
2021/08/23 05:55:40;;;;;;;13.68;9.03;;;;;;;27.97;39.75;100494.87;1783349;80;21041;-77
2021/08/23 05:58:07;;;;;;;13.08;8.48;;;;;;;28.13;40.07;100492.24;1784357;80;21060;-76
2021/08/23 06:00:33;;;;;;;15.23;10.50;;;;;;;28.31;39.23;100485.90;1746378;82;21097;-78
2021/08/23 06:03:00;;;;;;;15.38;9.40;;;;;;;28.53;38.78;100493.47;1778743;80;21045;-76
2021/08/23 06:05:26;;;;;;;12.88;9.18;;;;;;;28.69;38.74;100492.66;1779336;80;21033;-77
2021/08/23 06:07:54;;;;;;;17.48;9.58;;;;;;;28.92;38.19;100488.81;1779018;80;21006;-79
2021/08/23 06:10:21;;;;;;;14.25;9.15;;;;;;;29.17;37.93;100491.06;1778854;80;21615;-77
2021/08/23 06:12:48;;;;;;;15.50;8.90;;;;;;;29.38;36.97;100489.20;1778771;80;21064;-77
2021/08/23 06:15:15;;;;;;;18.67;9.03;;;;;;;29.51;35.82;100483.75;1778868;80;21072;-79
2021/08/23 06:17:41;;;;;;;11.97;8.10;;;;;;;29.41;36.35;100496.14;1778684;80;21085;-78
2021/08/23 06:20:08;;;;;;;11.78;8.55;;;;;;;29.55;36.01;100482.39;1779108;80;21108;-78
2021/08/23 06:22:37;;;;;;;11.12;8.25;;;;;;;29.87;35.44;100487.78;1779070;80;21084;-78
2021/08/23 06:25:06;;;;;;;14.07;8.70;;;;;;;30.10;34.97;100485.67;1778823;80;21539;-77
2021/08/23 06:27:33;;;;;;;12.50;8.28;;;;;;;30.23;34.73;100485.09;1778794;80;21092;-77
2021/08/23 06:30:01;;;;;;;13.72;8.43;;;;;;;30.10;34.54;100484.32;1741638;82;21953;-77
2021/08/23 06:32:27;;;;;;;16.12;8.28;;;;;;;30.03;34.51;100475.19;1778834;80;21005;-77
2021/08/23 06:34:54;;;;;;;14.05;8.23;;;;;;;30.05;34.61;100473.14;1779055;80;21120;-75
2021/08/23 06:37:21;;;;;;;13.03;7.83;;;;;;;30.13;34.62;100473.61;1778887;80;21024;-77
2021/08/23 06:39:49;;;;;;;14.18;7.40;;;;;;;30.38;33.42;100479.81;1779069;80;21579;-75
2021/08/23 06:42:16;;;;;;;12.20;7.45;;;;;;;30.48;33.64;100479.07;1779437;80;21112;-77
2021/08/23 06:44:42;;;;;;;12.85;7.60;;;;;;;30.80;33.46;100475.30;1778989;80;21009;-79
2021/08/23 06:47:08;;;;;;;10.78;8.05;;;;;;;31.12;32.29;100466.09;1741422;82;21096;-76
2021/08/23 06:49:35;;;;;;;12.05;7.53;;;;;;;31.16;32.54;100469.30;1778498;80;21040;-76
2021/08/23 06:52:03;;;;;;;13.95;7.97;;;;;;;31.27;32.10;100461.23;1748011;81;21057;-76
2021/08/23 06:54:30;;;;;;;11.35;7.28;;;;;;;31.43;31.95;100461.10;1765458;79;21265;-79
2021/08/23 06:56:57;;;;;;;15.43;8.18;;;;;;;31.55;31.59;100462.85;1797981;79;21047;-76
2021/08/23 06:59:27;;;;;;;14.87;7.35;;;;;;;31.68;31.27;100459.47;1797764;79;21034;-78
2021/08/23 07:01:53;;;;;;;11.70;7.20;;;;;;;31.76;31.36;100456.67;1792486;79;21056;-77
2021/08/23 07:04:19;;;;;;;8.68;6.67;;;;;;;31.98;31.15;100455.77;1786741;80;21008;-78
2021/08/23 07:06:46;;;;;;;8.75;6.83;;;;;;;32.10;30.19;100452.57;1786885;80;21412;-77
2021/08/23 07:09:17;;;;;;;11.97;7.08;;;;;;;31.92;30.32;100454.28;1786566;79;21164;-78
2021/08/23 07:11:44;;;;;;;9.58;6.85;;;;;;;31.84;30.14;100458.45;1787114;80;21069;-79
2021/08/23 07:14:10;;;;;;;14.35;6.97;;;;;;;31.54;30.41;100459.30;1786537;80;21028;-77
2021/08/23 07:16:37;;;;;;;10.45;6.87;;;;;;;31.54;31.07;100458.42;1786554;80;21186;-77
2021/08/23 07:19:04;;;;;;;12.05;7.00;;;;;;;31.70;30.52;100451.97;1786465;80;21099;-77
2021/08/23 07:21:30;;;;;;;12.58;6.80;;;;;;;31.69;30.77;100445.69;1786281;80;20961;-78
2021/08/23 07:23:57;;;;;;;11.35;7.28;;;;;;;31.78;30.45;100449.16;1786405;80;21008;-76
2021/08/23 07:26:23;;;;;;;10.32;6.87;;;;;;;31.90;30.03;100451.73;1785525;80;21029;-77
2021/08/23 07:28:50;;;;;;;11.73;6.97;;;;;;;32.00;29.84;100457.45;1741249;82;21081;-77
2021/08/23 07:31:17;;;;;;;12.00;6.95;;;;;;;32.28;29.39;100461.19;1728566;83;21130;-76
2021/08/23 07:33:43;;;;;;;9.75;5.97;;;;;;;32.48;29.56;100457.84;1728497;83;21077;-78
2021/08/23 07:36:10;;;;;;;8.00;5.92;;;;;;;32.76;28.49;100461.55;1728828;83;21062;-78
2021/08/23 07:38:38;;;;;;;8.45;6.00;;;;;;;32.95;28.04;100453.77;1728802;83;21102;-77
2021/08/23 07:41:04;;;;;;;9.60;5.65;;;;;;;33.21;27.90;100458.11;1741548;82;21084;-77
2021/08/23 07:43:32;;;;;;;12.68;6.55;;;;;;;33.49;27.10;100461.90;1728656;83;21309;-78
2021/08/23 07:45:58;;;;;;;9.33;6.35;;;;;;;33.74;26.86;100456.85;1728458;83;21063;-78
2021/08/23 07:48:25;;;;;;;8.43;6.10;;;;;;;33.85;26.74;100468.58;1728447;83;21163;-77
2021/08/23 07:50:51;;;;;;;8.18;5.30;;;;;;;33.77;26.59;100471.46;1728794;83;21058;-77
2021/08/23 07:53:18;;;;;;;8.25;5.95;;;;;;;33.54;26.18;100471.69;1728534;83;21058;-80
2021/08/23 07:55:44;;;;;;;8.65;5.90;;;;;;;33.08;26.50;100466.70;1728986;83;21552;-79
2021/08/23 07:58:11;;;;;;;10.93;5.78;;;;;;;32.92;27.33;100475.95;1714958;83;21128;-77
2021/08/23 08:00:38;;;;;;;10.72;5.78;;;;;;;32.73;27.75;100481.02;1727371;83;21109;-79
2021/08/23 08:03:04;;;;;;;7.62;5.08;;;;;;;32.79;27.87;100484.34;1751166;81;21510;-78
2021/08/23 08:05:30;;;;;;;16.48;5.58;;;;;;;33.01;27.49;100484.33;1752260;81;21022;-78
2021/08/23 08:07:56;;;;;;;8.43;5.17;;;;;;;33.09;27.35;100491.07;1751990;81;21131;-77
2021/08/23 08:10:23;;;;;;;7.62;4.87;;;;;;;32.98;27.55;100484.20;1752296;81;22290;-77
2021/08/23 08:15:04;;;;;;;11.43;5.78;;;;;;;33.10;26.95;100485.92;1782426;80;22741;-78
2021/08/23 08:17:30;;;;;;;9.25;5.67;;;;;;;33.11;26.77;100486.27;1756570;81;21044;-78
2021/08/23 08:19:57;;;;;;;9.93;4.97;;;;;;;33.10;26.10;100472.28;1756565;81;21267;-78
2021/08/23 08:22:23;;;;;;;11.68;5.10;;;;;;;33.11;26.61;100467.16;1756620;81;21024;-77
2021/08/23 08:24:49;;;;;;;10.10;4.90;;;;;;;33.28;26.65;100468.25;1756543;81;21712;-77
2021/08/23 08:27:16;;;;;;;6.28;4.65;;;;;;;33.25;25.59;100468.65;1756619;81;21016;-76
2021/08/23 08:29:42;;;;;;;6.30;4.28;;;;;;;32.73;26.35;100478.81;1756371;81;21559;-77
2021/08/23 08:32:09;;;;;;;6.97;5.10;;;;;;;32.06;26.18;100484.78;1756603;81;21504;-78
2021/08/23 08:34:35;;;;;;;9.95;5.30;;;;;;;31.26;28.24;100490.81;1756214;81;20977;-75
2021/08/23 08:37:02;;;;;;;6.12;4.72;;;;;;;30.76;29.61;100492.16;1756774;81;21020;-77
2021/08/23 08:39:28;;;;;;;6.78;4.97;;;;;;;30.09;29.78;100490.75;1723373;83;21543;-77
2021/08/23 08:41:55;;;;;;;8.43;5.03;;;;;;;29.55;30.99;100494.09;1691113;84;21712;-79
2021/08/23 08:44:21;;;;;;;7.85;5.00;;;;;;;29.13;31.34;100494.28;1691114;84;21572;-78
2021/08/23 08:46:50;;;;;;;6.72;4.53;;;;;;;28.84;32.39;100500.98;1647348;84;21101;-78
2021/08/23 08:49:16;;;;;;;7.72;4.03;;;;;;;28.67;32.49;100486.56;1723292;83;21002;-78
2021/08/23 08:51:43;;;;;;;6.95;3.85;;;;;;;28.47;32.76;100484.63;1690745;84;21066;-77
2021/08/23 08:54:09;;;;;;;5.72;4.42;;;;;;;28.27;31.86;100482.66;1691053;84;21072;-78
2021/08/23 08:56:36;;;;;;;6.42;4.05;;;;;;;28.18;32.97;100489.05;1697541;84;21118;-77
2021/08/23 08:59:03;;;;;;;6.53;4.05;;;;;;;28.42;32.07;100485.09;1726346;82;21068;-77
2021/08/23 09:01:30;;;;;;;4.33;3.75;;;;;;;28.71;31.65;100476.22;1726244;83;21083;-78
2021/08/23 09:04:04;;;;;;;6.45;4.00;;;;;;;29.04;30.67;100470.34;1726116;83;21019;-75
2021/08/23 09:06:39;;;;;;;7.00;3.87;;;;;;;29.18;31.17;100467.50;1705327;83;21120;-77
2021/08/23 09:09:12;;;;;;;4.78;3.83;;;;;;;29.31;30.27;100466.97;1674509;85;21154;-77
2021/08/23 09:11:41;;;;;;;6.80;3.75;;;;;;;29.56;29.70;100459.66;1673823;85;21096;-77
2021/08/23 09:14:09;;;;;;;4.80;3.42;;;;;;;29.58;30.02;100457.62;1666984;85;21576;-77
2021/08/23 09:16:40;;;;;;;8.08;4.00;;;;;;;29.36;28.99;100458.67;1705474;84;21081;-78
2021/08/23 09:19:27;;;;;;;5.10;3.17;;;;;;;29.35;29.07;100452.89;1705868;84;21242;-80
2021/08/23 09:22:05;;;;;;;6.22;3.45;;;;;;;29.57;29.85;100451.35;1705554;84;21114;-77
2021/08/23 09:24:34;;;;;;;5.70;3.62;;;;;;;30.01;29.45;100450.91;1705507;84;20995;-78
2021/08/23 09:27:13;;;;;;;5.40;3.40;;;;;;;30.45;28.56;100458.54;1705139;84;21046;-78
2021/08/23 09:29:54;;;;;;;7.30;3.87;;;;;;;30.47;28.18;100460.57;1705061;84;21105;-77
2021/08/23 09:32:26;;;;;;;6.33;3.95;;;;;;;29.79;28.48;100445.71;1705074;84;21643;-78
2021/08/23 09:34:53;;;;;;;9.35;4.50;;;;;;;29.23;30.66;100451.56;1705130;84;21102;-77
2021/08/23 09:37:26;;;;;;;8.00;4.42;;;;;;;29.09;31.07;100454.96;1705189;84;21077;-79
2021/08/23 09:39:54;;;;;;;6.67;4.37;;;;;;;29.11;31.01;100442.08;1705429;84;21079;-77
2021/08/23 09:42:24;;;;;;;7.30;4.25;;;;;;;29.10;31.12;100446.63;1705446;84;21093;-78
2021/08/23 09:44:53;;;;;;;10.03;4.08;;;;;;;29.12;31.05;100443.77;1705303;84;26548;-79
2021/08/23 09:47:28;;;;;;;9.18;4.17;;;;;;;29.19;31.35;100459.17;1704622;84;21562;-79
2021/08/23 09:49:56;;;;;;;5.90;3.55;;;;;;;29.58;31.16;100460.33;1704932;84;21034;-77
2021/08/23 09:52:34;;;;;;;6.42;3.35;;;;;;;30.07;29.09;100455.65;1705250;84;21006;-77
2021/08/23 09:55:05;;;;;;;5.28;3.40;;;;;;;30.57;28.20;100464.41;1680632;84;21049;-78
2021/08/23 09:57:36;;;;;;;5.20;3.20;;;;;;;30.91;27.73;100459.12;1662062;85;21076;-77
2021/08/23 10:00:07;;;;;;;7.55;3.40;;;;;;;31.18;26.89;100460.97;1662438;86;21090;-79
2021/08/23 10:02:36;;;;;;;4.75;3.05;;;;;;;31.38;26.84;100453.95;1661917;85;21048;-79
2021/08/23 10:05:03;;;;;;;5.25;3.27;;;;;;;31.59;25.53;100457.87;1662197;84;21599;-77
2021/08/23 10:07:30;;;;;;;6.03;3.50;;;;;;;31.53;25.17;100450.78;1662095;85;21564;-77
2021/08/23 10:10:00;;;;;;;5.53;3.37;;;;;;;31.26;25.66;100454.08;1662163;86;21383;-79
2021/08/23 10:12:28;;;;;;;4.65;3.20;;;;;;;30.87;26.21;100455.08;1662180;86;21187;-80
2021/08/23 10:14:55;;;;;;;5.15;3.45;;;;;;;30.62;26.30;100457.95;1650378;86;21081;-79
2021/08/23 10:17:21;;;;;;;8.23;3.40;;;;;;;30.36;27.44;100453.34;1662283;85;21145;-79
2021/08/23 10:19:48;;;;;;;4.95;3.50;;;;;;;30.22;27.48;100455.73;1662257;86;21168;-79
2021/08/23 10:22:15;;;;;;;4.75;3.55;;;;;;;30.33;27.09;100448.27;1628619;86;21109;-79
2021/08/23 10:24:41;;;;;;;5.30;3.42;;;;;;;30.48;26.45;100441.91;1662142;85;21532;-79
2021/08/23 10:27:08;;;;;;;6.55;3.22;;;;;;;30.29;26.68;100439.61;1662105;86;21688;-78
2021/08/23 10:29:39;;;;;;;5.03;3.40;;;;;;;30.25;27.35;100435.03;1662251;86;21103;-77
2021/08/23 10:32:09;;;;;;;4.50;3.50;;;;;;;30.44;26.22;100426.13;1662015;86;21584;-77
2021/08/23 10:34:38;;;;;;;5.28;3.37;;;;;;;30.25;26.57;100420.09;1662185;85;21073;-76
2021/08/23 10:37:19;;;;;;;4.55;3.20;;;;;;;30.20;26.66;100421.11;1662297;86;21223;-76
2021/08/23 10:39:46;;;;;;;7.20;3.47;;;;;;;30.06;27.27;100417.80;1662218;86;21058;-77
2021/08/23 10:42:14;;;;;;;5.12;3.62;;;;;;;30.15;27.45;100420.81;1662202;86;21030;-78
2021/08/23 10:44:42;;;;;;;5.63;3.30;;;;;;;30.15;27.45;100420.81;1662260;85;21082;-76
2021/08/23 10:47:14;;;;;;;9.33;3.30;;;;;;;30.20;27.20;100421.63;1662373;86;21104;-77
2021/08/23 10:49:44;;;;;;;4.78;3.17;;;;;;;30.29;26.99;100421.44;1662199;85;21828;-79
2021/08/23 10:52:12;;;;;;;6.12;3.47;;;;;;;30.23;27.37;100418.55;1662257;85;21077;-77
2021/08/23 10:54:44;;;;;;;4.85;2.90;;;;;;;30.43;27.52;100423.06;1679926;84;22046;-76
2021/08/23 10:57:13;;;;;;;7.35;3.15;;;;;;;30.61;26.80;100419.55;1705306;84;21038;-77
2021/08/23 10:59:54;;;;;;;4.83;3.35;;;;;;;30.85;26.10;100416.34;1705009;84;21025;-77
2021/08/23 11:02:33;;;;;;;6.03;3.37;;;;;;;30.72;26.12;100412.34;1705064;84;21507;-77
2021/08/23 11:05:15;;;;;;;6.92;3.33;;;;;;;30.54;27.15;100413.15;1705021;82;21046;-78
2021/08/23 11:07:43;;;;;;;5.62;3.50;;;;;;;30.18;27.02;100413.66;1705325;84;21090;-79
2021/08/23 11:10:18;;;;;;;3.87;3.25;;;;;;;30.36;27.39;100410.70;1705047;84;21526;-79
2021/08/23 11:12:51;;;;;;;5.65;3.50;;;;;;;30.36;27.39;100410.70;1684901;84;21085;-78
2021/08/23 11:15:28;;;;;;;6.60;3.27;;;;;;;30.65;26.29;100403.22;1704995;83;21050;-77
2021/08/23 11:18:07;;;;;;;7.17;3.40;;;;;;;30.83;27.31;100402.05;1705573;84;21565;-78
2021/08/23 11:20:36;;;;;;;5.65;3.10;;;;;;;31.14;26.18;100402.83;1705166;84;21129;-78
2021/08/23 11:23:07;;;;;;;4.20;3.20;;;;;;;31.45;25.72;100408.70;1705219;84;21510;-78